Time;durP1;ratioP1;P1;durP2;ratioP2;P2;SDS_P1;SDS_P2;PMS_P1;PMS_P2;Temp;Humidity;BMP_temperature;BMP_pressure;BME280_temperature;BME280_humidity;BME280_pressure;Samples;Min_cycle;Max_cycle;Signal;HPM_P1;HPM_P2
2023/01/16 00:00:30;;;;;;;27.17;15.73;;;4.20;99.90;;;3.99;67.69;94885.69;5041835;28;20579;-57
2023/01/16 00:02:57;;;;;;;26.50;16.40;;;4.20;99.90;;;4.00;67.85;94887.34;5040428;28;20475;-55
2023/01/16 00:05:24;;;;;;;30.57;16.17;;;4.20;99.90;;;4.00;67.49;94870.88;5045442;28;20546;-55
2023/01/16 00:07:51;;;;;;;27.20;16.20;;;4.20;99.90;;;4.01;67.83;94869.97;5044498;28;20483;-55
2023/01/16 00:10:19;;;;;;;26.27;14.90;;;4.20;99.90;;;4.01;67.97;94875.16;5044019;28;20459;-56
2023/01/16 00:12:48;;;;;;;24.33;14.23;;;4.20;99.90;;;4.02;67.60;94867.25;5045143;28;20549;-55
2023/01/16 00:15:15;;;;;;;25.47;14.17;;;4.20;99.90;;;4.03;68.06;94860.28;5044915;28;20527;-53
2023/01/16 00:17:44;;;;;;;27.83;16.77;;;4.20;99.90;;;4.03;67.79;94860.28;5042168;28;21052;-55
2023/01/16 00:20:12;;;;;;;25.53;16.03;;;4.20;99.90;;;4.05;67.81;94861.03;5044455;28;20891;-57
2023/01/16 00:22:39;;;;;;;29.67;15.27;;;4.20;99.90;;;4.05;68.05;94867.06;5042101;28;20521;-57
2023/01/16 00:25:08;;;;;;;29.47;16.60;;;4.30;99.90;;;4.06;67.57;94857.47;5044572;28;20460;-57
2023/01/16 00:27:35;;;;;;;27.00;16.50;;;4.30;99.90;;;4.08;67.81;94858.22;5041712;28;20468;-57
2023/01/16 00:30:03;;;;;;;25.33;15.13;;;4.30;99.90;;;4.08;68.14;94858.22;5044361;28;20464;-56
2023/01/16 00:32:30;;;;;;;24.97;16.10;;;4.30;99.90;;;4.05;67.50;94842.81;5042262;28;20486;-56
2023/01/16 00:34:59;;;;;;;32.33;16.00;;;4.20;99.90;;;4.03;67.91;94844.66;5043696;28;20544;-57
2023/01/16 00:37:26;;;;;;;28.93;15.90;;;4.30;99.90;;;4.00;67.94;94852.66;5043550;28;20500;-53
2023/01/16 00:39:53;;;;;;;33.37;17.60;;;4.20;99.90;;;3.97;67.88;94838.09;5043554;28;20617;-56
2023/01/16 00:42:21;;;;;;;35.00;16.47;;;4.20;99.90;;;3.97;67.59;94834.66;5041336;28;20448;-54
2023/01/16 00:44:48;;;;;;;29.93;16.63;;;4.20;99.90;;;3.95;67.75;94838.22;5044624;28;20452;-55
2023/01/16 00:47:15;;;;;;;34.00;17.90;;;4.20;99.90;;;3.94;67.75;94844.34;5045441;28;20448;-56
2023/01/16 00:49:42;;;;;;;25.00;16.50;;;4.20;99.90;;;3.92;67.43;94838.41;5043941;28;20490;-54
2023/01/16 00:52:11;;;;;;;53.40;24.27;;;4.20;99.90;;;3.91;67.41;94843.72;5042165;28;20459;-56
2023/01/16 00:54:38;;;;;;;54.57;25.40;;;4.10;99.90;;;3.89;67.27;94846.41;5043488;28;21397;-57
2023/01/16 00:57:06;;;;;;;32.63;19.53;;;4.10;99.90;;;3.87;67.52;94834.44;5039473;28;21051;-58
2023/01/16 00:59:33;;;;;;;36.50;18.70;;;4.10;99.90;;;3.86;67.80;94832.78;5041110;28;20460;-56
2023/01/16 01:02:00;;;;;;;27.30;15.53;;;4.10;99.90;;;3.86;67.48;94833.59;5043870;28;20493;-57
2023/01/16 01:04:30;;;;;;;31.80;17.70;;;4.10;99.90;;;3.84;67.87;94830.28;5042587;28;20541;-55
2023/01/16 01:06:57;;;;;;;26.73;16.33;;;4.10;99.90;;;3.85;67.99;94820.69;5044936;28;20535;-55
2023/01/16 01:09:25;;;;;;;27.80;15.20;;;4.00;99.90;;;3.85;67.52;94833.72;5040905;28;20472;-57
2023/01/16 01:11:53;;;;;;;27.47;15.67;;;4.10;99.90;;;3.83;68.25;94839.00;5044832;28;21032;-57
2023/01/16 01:14:20;;;;;;;24.30;14.57;;;4.10;99.90;;;3.82;67.78;94834.72;5042450;28;20487;-56
2023/01/16 01:16:47;;;;;;;27.60;14.90;;;4.00;99.90;;;3.78;68.50;94825.47;5044240;28;20515;-54
2023/01/16 01:19:14;;;;;;;23.17;15.53;;;4.00;99.90;;;3.79;68.27;94823.69;5043306;28;20471;-56
2023/01/16 01:21:42;;;;;;;24.67;15.00;;;4.00;99.90;;;3.78;67.51;94815.06;5040922;28;20464;-57
2023/01/16 01:24:09;;;;;;;24.00;15.00;;;4.00;99.90;;;3.77;68.12;94810.78;5042469;28;20484;-56
2023/01/16 01:26:38;;;;;;;24.47;14.93;;;4.00;99.90;;;3.71;67.71;94806.81;5044049;28;20451;-55
2023/01/16 01:29:05;;;;;;;27.27;15.73;;;3.90;99.90;;;3.67;67.86;94804.50;5043825;28;20480;-57
2023/01/16 01:31:33;;;;;;;24.07;15.27;;;3.90;99.90;;;3.64;67.61;94796.91;5044378;28;20482;-54
2023/01/16 01:34:00;;;;;;;33.30;18.13;;;3.90;99.90;;;3.62;68.02;94809.19;5044354;28;20486;-57
2023/01/16 01:36:27;;;;;;;28.17;16.43;;;3.80;99.90;;;3.58;67.71;94796.38;5048098;28;20510;-54
2023/01/16 01:38:54;;;;;;;30.23;16.77;;;3.80;99.90;;;3.56;68.42;94795.66;5047068;28;20911;-56
2023/01/16 01:41:22;;;;;;;29.00;16.70;;;3.80;99.90;;;3.54;68.24;94794.09;5048589;28;20497;-56
2023/01/16 01:43:51;;;;;;;34.00;19.27;;;3.70;99.90;;;3.51;67.91;94802.91;5047313;28;21317;-57
2023/01/16 01:46:23;;;;;;;32.57;17.27;;;3.80;99.90;;;3.51;68.50;94794.28;5047670;28;21006;-55
2023/01/16 01:48:51;;;;;;;33.70;16.40;;;3.70;99.90;;;3.51;67.97;94795.09;5047697;28;20472;-56
2023/01/16 01:51:20;;;;;;;28.57;15.40;;;3.80;99.90;;;3.52;68.88;94794.19;5043240;28;20451;-59
2023/01/16 01:53:49;;;;;;;25.27;14.40;;;3.70;99.90;;;3.52;68.56;94793.34;5045009;28;20503;-55
2023/01/16 01:56:19;;;;;;;28.07;14.40;;;3.70;99.90;;;3.53;68.69;94808.00;5048106;28;20456;-55
2023/01/16 01:58:46;;;;;;;22.07;13.63;;;3.80;99.90;;;3.54;68.50;94791.47;5046474;28;20498;-56
2023/01/16 02:01:15;;;;;;;30.43;16.63;;;3.80;99.90;;;3.54;68.73;94776.69;5045262;28;20456;-55
2023/01/16 02:03:43;;;;;;;25.70;14.90;;;3.80;99.90;;;3.54;68.10;94787.09;5045923;28;21032;-55
2023/01/16 02:06:15;;;;;;;27.90;15.87;;;3.80;99.90;;;3.54;68.79;94781.91;5047652;28;20454;-55
2023/01/16 02:08:44;;;;;;;30.03;16.20;;;3.80;99.90;;;3.57;68.58;94779.09;5044173;28;20472;-55
2023/01/16 02:11:25;;;;;;;23.93;14.40;;;3.80;99.90;;;3.58;68.65;94775.56;5047578;28;20944;-54
2023/01/16 02:13:54;;;;;;;24.50;14.67;;;3.80;99.90;;;3.62;68.16;94780.59;5044730;28;20475;-54
2023/01/16 02:19:17;;;;;;;28.60;15.40;;;3.90;99.90;;;3.62;67.75;94768.41;5047016;28;20581;-54
2023/01/16 02:22:39;;;;;;;30.10;15.27;;;3.90;99.90;;;3.61;68.34;94773.69;5043343;28;20574;-56
2023/01/16 02:25:59;;;;;;;27.67;16.00;;;3.80;99.90;;;3.58;68.32;94772.97;5043420;28;20451;-55
2023/01/16 02:29:37;;;;;;;25.17;14.93;;;3.80;99.90;;;3.56;68.00;94768.81;5047330;28;20491;-56
2023/01/16 02:32:12;;;;;;;24.90;15.60;;;3.80;99.90;;;3.57;67.84;94765.28;5002971;28;20475;-56
2023/01/16 02:34:58;;;;;;;25.93;15.80;;;3.80;99.90;;;3.58;68.13;94766.97;5046382;28;20448;-56
2023/01/16 02:37:33;;;;;;;31.33;16.00;;;3.80;99.90;;;3.58;68.55;94772.97;5046384;28;20503;-56
2023/01/16 02:40:10;;;;;;;27.70;14.97;;;3.80;99.90;;;3.61;67.59;94761.56;5047602;28;20443;-57
2023/01/16 02:42:43;;;;;;;24.80;14.80;;;3.80;99.90;;;3.61;68.07;94750.28;5043844;28;20501;-55
2023/01/16 02:45:16;;;;;;;31.23;16.27;;;3.80;99.90;;;3.59;67.33;94753.84;5043749;28;20969;-56
2023/01/16 02:47:46;;;;;;;27.23;14.47;;;3.80;99.90;;;3.57;67.84;94753.09;5044620;28;20788;-55
2023/01/16 02:50:20;;;;;;;22.57;14.33;;;3.80;99.90;;;3.56;67.55;94745.41;5046649;28;20451;-56
2023/01/16 02:52:52;;;;;;;24.33;14.53;;;3.80;99.90;;;3.56;67.99;94748.84;5044784;28;20480;-55
2023/01/16 02:55:23;;;;;;;22.67;14.00;;;3.80;99.90;;;3.57;67.90;94753.09;5046572;28;21066;-55
2023/01/16 02:57:54;;;;;;;29.30;14.50;;;3.80;99.90;;;3.56;67.94;94741.06;5043225;28;20645;-56
2023/01/16 03:00:21;;;;;;;22.80;13.97;;;3.80;99.90;;;3.56;67.96;94743.66;5043509;28;20463;-57
2023/01/16 03:02:50;;;;;;;26.07;15.10;;;3.80;99.90;;;3.56;68.07;94740.19;5043393;28;21486;-55
2023/01/16 03:05:17;;;;;;;26.03;15.07;;;3.80;99.90;;;3.57;67.65;94744.47;5046100;28;20542;-57
2023/01/16 03:08:25;;;;;;;31.83;15.93;;;3.80;99.90;;;3.59;68.02;94748.66;5045052;28;20533;-56
2023/01/16 03:11:22;;;;;;;34.03;17.30;;;3.80;99.90;;;3.58;68.25;94739.16;5044640;28;20470;-53
2023/01/16 03:14:12;;;;;;;27.50;15.60;;;3.80;99.90;;;3.59;68.38;94716.59;5031127;28;20495;-56
2023/01/16 03:16:45;;;;;;;26.70;14.90;;;3.80;99.90;;;3.54;68.09;94724.69;5039834;28;20543;-55
2023/01/16 03:19:24;;;;;;;26.53;15.90;;;3.80;99.90;;;3.53;68.05;94712.66;5046511;28;20484;-55
2023/01/16 03:22:01;;;;;;;23.07;13.20;;;3.80;99.90;;;3.55;69.06;94720.34;5041764;28;20448;-57
2023/01/16 03:24:41;;;;;;;25.30;13.97;;;3.70;99.90;;;3.53;68.08;94711.78;5046067;28;20536;-57
2023/01/16 03:27:14;;;;;;;21.97;13.43;;;3.80;99.90;;;3.49;68.32;94713.78;5046051;28;20558;-56
2023/01/16 03:29:43;;;;;;;24.60;15.50;;;3.70;99.90;;;3.47;68.95;94713.06;5042634;28;20460;-57
2023/01/16 03:32:13;;;;;;;25.37;14.47;;;3.70;99.90;;;3.47;68.63;94701.78;5043709;28;20983;-56
2023/01/16 03:34:44;;;;;;;26.43;14.50;;;3.70;99.90;;;3.48;68.51;94693.91;5046390;28;20482;-55
2023/01/16 03:37:13;;;;;;;21.17;13.37;;;3.70;99.90;;;3.46;68.89;94695.78;5046115;28;20476;-57
2023/01/16 03:39:43;;;;;;;41.60;20.00;;;3.70;99.90;;;3.44;68.13;94687.25;5045021;28;20464;-54
2023/01/16 03:42:14;;;;;;;34.10;18.30;;;3.70;99.90;;;3.40;68.88;94680.56;5044893;28;20547;-55
2023/01/16 03:44:43;;;;;;;36.33;19.40;;;3.60;99.90;;;3.41;68.59;94679.66;5045885;28;20447;-56
2023/01/16 03:47:15;;;;;;;35.63;18.53;;;3.70;99.90;;;3.43;68.77;94672.59;5044949;28;20474;-56
2023/01/16 03:49:46;;;;;;;28.20;15.10;;;3.70;99.90;;;3.44;68.24;94682.06;5046200;28;20828;-54
2023/01/16 03:52:14;;;;;;;25.50;14.73;;;3.70;99.90;;;3.44;67.98;94661.25;5042825;28;20484;-55
2023/01/16 03:54:46;;;;;;;32.60;16.47;;;3.70;99.90;;;3.45;68.60;94673.31;5044142;28;21058;-55
2023/01/16 03:57:15;;;;;;;28.97;15.33;;;3.70;99.90;;;3.45;68.23;94667.28;5045825;28;20917;-56
2023/01/16 03:59:44;;;;;;;22.67;14.17;;;3.70;99.90;;;3.44;68.47;94671.66;5043674;28;20548;-55
2023/01/16 04:02:14;;;;;;;29.10;16.20;;;3.70;99.90;;;3.43;67.92;94672.59;5042995;28;20525;-54
2023/01/16 04:04:45;;;;;;;22.03;13.77;;;3.70;99.90;;;3.43;67.76;94675.19;5046121;28;20455;-56
2023/01/16 04:07:15;;;;;;;25.17;16.00;;;3.70;99.90;;;3.43;67.81;94680.38;5046250;28;20444;-57
2023/01/16 04:09:46;;;;;;;26.63;15.07;;;3.70;99.90;;;3.44;68.04;94682.06;5038648;28;20980;-55
2023/01/16 04:12:17;;;;;;;22.03;14.13;;;3.70;99.90;;;3.43;67.60;94675.19;5042215;28;20521;-56
2023/01/16 04:14:44;;;;;;;28.93;15.70;;;3.70;99.90;;;3.41;68.04;94677.88;5039466;28;20523;-57
2023/01/16 04:17:12;;;;;;;38.70;19.63;;;3.70;99.90;;;3.41;68.28;94669.25;5045672;28;20456;-57
2023/01/16 04:19:39;;;;;;;30.50;17.00;;;3.60;99.90;;;3.41;67.62;94661.47;5044084;28;20555;-56
2023/01/16 04:22:08;;;;;;;27.97;15.10;;;3.60;99.90;;;3.38;68.12;94672.88;5045414;28;20459;-55
2023/01/16 04:24:35;;;;;;;24.57;14.67;;;3.60;99.90;;;3.38;67.77;94661.66;5044926;28;20443;-57
2023/01/16 04:27:03;;;;;;;30.80;15.47;;;3.60;99.90;;;3.38;67.60;94657.28;5043189;28;20975;-55
2023/01/16 04:29:30;;;;;;;28.27;15.30;;;3.60;99.90;;;3.40;67.92;94657.19;5044159;28;20498;-56
2023/01/16 04:31:57;;;;;;;24.93;13.80;;;3.60;99.90;;;3.38;68.22;94661.66;5043129;28;20464;-57
2023/01/16 04:34:24;;;;;;;25.87;14.43;;;3.60;99.90;;;3.36;68.05;94659.16;5040119;28;21029;-56
2023/01/16 04:36:52;;;;;;;35.43;16.37;;;3.60;99.90;;;3.37;67.93;94644.38;5043916;28;20535;-57
2023/01/16 04:39:20;;;;;;;32.77;16.63;;;3.60;99.90;;;3.38;68.30;94648.66;5045283;28;20588;-56
2023/01/16 04:41:50;;;;;;;26.17;15.83;;;3.60;99.90;;;3.39;68.02;94638.16;5044164;28;20467;-54
2023/01/16 04:44:17;;;;;;;28.43;16.43;;;3.60;99.90;;;3.41;68.33;94638.06;5043005;28;20480;-54
2023/01/16 04:46:45;;;;;;;26.27;17.13;;;3.60;99.90;;;3.43;68.44;94654.38;5044176;28;20460;-55
2023/01/16 04:49:12;;;;;;;30.83;16.50;;;3.70;99.90;;;3.45;67.78;94647.31;5042609;28;20487;-56
2023/01/16 04:51:39;;;;;;;33.17;16.90;;;3.70;99.90;;;3.45;68.33;94647.31;5041606;28;20464;-55
2023/01/16 04:54:07;;;;;;;26.83;15.67;;;3.70;99.90;;;3.45;68.14;94642.09;5038720;28;20483;-57
2023/01/16 04:56:35;;;;;;;30.53;16.53;;;3.70;99.90;;;3.45;67.91;94641.28;5045084;28;20444;-54
2023/01/16 04:59:03;;;;;;;30.50;17.70;;;3.70;99.90;;;3.45;68.38;94641.28;5044733;28;20530;-54
2023/01/16 05:01:34;;;;;;;27.07;17.67;;;3.70;99.90;;;3.46;67.79;94641.19;5045069;28;20459;-55
2023/01/16 05:04:02;;;;;;;32.63;19.07;;;3.70;99.90;;;3.48;67.70;94641.91;5043721;28;20499;-55
2023/01/16 05:06:29;;;;;;;28.60;17.90;;;3.70;99.90;;;3.48;68.05;94641.06;5044801;28;20450;-57
2023/01/16 05:08:56;;;;;;;32.50;18.07;;;3.70;99.90;;;3.49;68.10;94648.78;5048666;28;20471;-57
2023/01/16 05:11:23;;;;;;;30.43;17.07;;;3.70;99.90;;;3.48;67.57;94636.69;5048469;28;20456;-55
2023/01/16 05:13:52;;;;;;;24.93;15.80;;;3.70;99.90;;;3.48;67.71;94634.09;5045378;28;20574;-56
2023/01/16 05:16:19;;;;;;;29.60;17.30;;;3.70;99.90;;;3.47;67.93;94640.25;5048605;28;20470;-54
2023/01/16 05:18:46;;;;;;;30.70;18.30;;;3.70;99.90;;;3.50;68.32;94634.00;5045502;28;20506;-57
2023/01/16 05:21:14;;;;;;;31.93;17.17;;;3.70;99.90;;;3.51;68.13;94631.28;5047307;28;20975;-55
2023/01/16 05:23:41;;;;;;;28.40;17.30;;;3.80;99.90;;;3.54;68.11;94625.06;5045875;28;20831;-56
2023/01/16 05:26:08;;;;;;;28.60;16.93;;;3.70;99.90;;;3.56;67.93;94621.44;5048247;28;20582;-54
2023/01/16 05:28:36;;;;;;;28.40;16.00;;;3.80;99.90;;;3.59;67.53;94612.56;5047565;28;20569;-57
2023/01/16 05:31:05;;;;;;;39.97;21.40;;;3.80;99.90;;;3.59;68.34;94610.81;5043819;28;20452;-57
2023/01/16 05:33:32;;;;;;;39.13;20.33;;;3.80;99.90;;;3.61;68.41;94612.47;5042436;28;20554;-55
2023/01/16 05:35:59;;;;;;;37.73;19.40;;;3.80;99.90;;;3.61;68.43;94597.72;5042342;28;20467;-57
2023/01/16 05:38:26;;;;;;;36.63;17.73;;;3.80;99.90;;;3.63;69.10;94603.63;5045755;28;20491;-57
2023/01/16 05:40:53;;;;;;;42.60;17.87;;;3.90;99.90;;;3.65;68.81;94608.75;5046302;28;20565;-56
2023/01/16 05:43:21;;;;;;;41.27;18.97;;;3.90;99.90;;;3.68;69.07;94601.53;5046873;28;20486;-55
2023/01/16 05:45:48;;;;;;;45.43;17.30;;;3.90;99.90;;;3.72;68.33;94612.59;5048275;28;20505;-56
2023/01/16 05:48:17;;;;;;;47.70;19.40;;;3.90;99.90;;;3.74;68.97;94611.53;5048390;28;20475;-57
2023/01/16 05:50:44;;;;;;;39.43;17.90;;;3.90;99.90;;;3.77;69.04;94610.50;5047902;28;20455;-55
2023/01/16 05:53:11;;;;;;;36.03;18.50;;;4.00;99.90;;;3.81;68.75;94606.75;5047913;28;21048;-55
2023/01/16 05:55:41;;;;;;;39.57;19.80;;;4.00;99.90;;;3.84;69.00;94609.16;5047910;28;20452;-56
2023/01/16 05:58:10;;;;;;;37.93;17.37;;;4.00;99.90;;;3.86;68.88;94612.47;5047947;28;20491;-56
2023/01/16 06:00:37;;;;;;;37.83;17.73;;;4.10;99.90;;;3.89;68.71;94601.84;5048456;28;20497;-55
2023/01/16 06:03:04;;;;;;;36.90;17.93;;;4.10;99.90;;;3.92;69.04;94587.81;5047030;28;20538;-57
2023/01/16 06:05:33;;;;;;;35.53;18.27;;;4.10;99.90;;;3.93;68.87;94584.25;5047738;28;21031;-55
2023/01/16 06:08:00;;;;;;;34.83;19.17;;;4.10;99.90;;;3.93;68.74;94592.06;5047864;28;20983;-54
2023/01/16 06:10:27;;;;;;;41.83;21.40;;;4.10;99.90;;;3.94;68.68;94593.72;5047732;28;20455;-57
2023/01/16 06:12:55;;;;;;;32.87;17.90;;;4.20;99.90;;;3.95;68.42;94588.41;5047999;28;20464;-59
2023/01/16 06:15:23;;;;;;;39.70;17.60;;;4.10;99.90;;;3.97;68.28;94580.50;5047670;28;20960;-53
2023/01/16 06:17:52;;;;;;;39.97;19.60;;;4.20;99.90;;;3.97;68.85;94584.84;5047468;28;20479;-57
2023/01/16 06:20:19;;;;;;;38.23;18.67;;;4.20;99.90;;;3.98;68.69;94587.34;5046989;28;20548;-57
2023/01/16 06:22:48;;;;;;;34.77;17.23;;;4.20;99.90;;;4.02;68.41;94591.41;5047723;28;20464;-57
2023/01/16 06:25:15;;;;;;;43.63;20.80;;;4.20;99.90;;;4.06;68.53;94597.22;5047632;28;20451;-57
2023/01/16 06:27:42;;;;;;;38.07;19.43;;;4.20;99.90;;;4.08;68.95;94606.59;5047793;28;20495;-57
2023/01/16 06:30:11;;;;;;;39.80;18.47;;;4.30;99.90;;;4.12;68.74;94605.47;5047814;28;20460;-57
2023/01/16 06:32:38;;;;;;;52.13;30.10;;;4.30;99.90;;;4.16;68.40;94606.06;5046512;28;21082;-55
2023/01/16 06:35:07;;;;;;;45.67;24.30;;;4.40;99.90;;;4.18;68.69;94609.38;5048302;28;20452;-57
2023/01/16 06:37:34;;;;;;;49.63;27.63;;;4.40;99.90;;;4.20;68.18;94611.88;5047907;28;20908;-57
2023/01/16 06:40:02;;;;;;;60.10;24.87;;;4.40;99.90;;;4.20;68.26;94604.94;5047046;28;21023;-56
2023/01/16 06:42:30;;;;;;;51.77;23.83;;;4.40;99.90;;;4.23;68.46;94601.25;5047467;28;20602;-56
2023/01/16 06:44:57;;;;;;;43.47;19.70;;;4.40;99.90;;;4.24;68.37;94601.16;5047449;28;20490;-56
2023/01/16 06:47:24;;;;;;;54.90;21.47;;;4.40;99.90;;;4.28;68.49;94583.56;5047517;28;20451;-57
2023/01/16 06:49:51;;;;;;;47.17;24.33;;;4.50;99.90;;;4.31;68.34;94578.13;5046922;28;21051;-55
2023/01/16 06:52:19;;;;;;;40.97;20.73;;;4.50;99.90;;;4.33;68.17;94572.81;5046880;28;20501;-56
2023/01/16 06:54:46;;;;;;;43.90;20.33;;;4.50;99.90;;;4.38;67.96;94583.72;5046701;28;20533;-56
2023/01/16 06:57:15;;;;;;;43.07;21.37;;;4.50;99.90;;;4.41;68.40;94588.72;5043098;28;20447;-55
2023/01/16 06:59:42;;;;;;;41.97;21.27;;;4.60;99.90;;;4.46;68.23;94589.22;5043103;28;20507;-56
2023/01/16 07:02:09;;;;;;;46.80;20.90;;;4.60;99.90;;;4.51;68.35;94584.53;5046987;28;20569;-55
2023/01/16 07:04:37;;;;;;;38.93;21.30;;;4.70;99.90;;;4.54;68.23;94573.88;5046978;28;20448;-58
2023/01/16 07:07:04;;;;;;;38.60;19.97;;;4.70;99.90;;;4.55;68.60;94583.34;5046517;28;20455;-55
2023/01/16 07:09:32;;;;;;;39.97;21.87;;;4.70;99.90;;;4.61;71.44;94585.50;5046594;28;20451;-56
2023/01/16 07:11:59;;;;;;;45.27;21.50;;;4.80;99.90;;;4.76;71.26;94575.75;5046836;28;20459;-56
2023/01/16 07:22:45;;;;;;;46.97;19.97;;;5.30;99.90;;;5.35;70.12;94582.69;5043076;28;20451;-56
2023/01/16 07:25:15;;;;;;;35.67;20.20;;;5.40;99.90;;;5.42;68.93;94583.06;5046833;28;20574;-57
2023/01/16 07:27:43;;;;;;;39.00;20.67;;;5.50;99.90;;;5.43;67.91;94581.31;5046478;28;20467;-55
2023/01/16 07:30:13;;;;;;;39.93;20.40;;;5.60;99.90;;;5.41;67.87;94578.81;5046043;28;20999;-57
2023/01/16 07:32:40;;;;;;;36.70;19.57;;;5.60;99.90;;;5.39;67.35;94576.31;5043282;28;20821;-57
2023/01/16 07:35:08;;;;;;;32.97;20.00;;;5.50;99.90;;;5.38;67.51;94569.44;5046374;28;20844;-55
2023/01/16 07:37:35;;;;;;;37.00;21.77;;;5.50;99.90;;;5.30;67.17;94569.19;5046332;28;20956;-57
2023/01/16 07:40:03;;;;;;;39.67;20.40;;;5.50;99.90;;;5.20;67.11;94558.63;5046620;28;20688;-56
2023/01/16 07:42:31;;;;;;;41.37;22.43;;;5.40;99.90;;;5.17;67.04;94556.25;5046106;28;20476;-57
2023/01/16 07:44:58;;;;;;;58.70;28.63;;;5.30;99.90;;;5.20;67.45;94566.44;5046309;28;20537;-55
2023/01/16 07:47:27;;;;;;;53.13;24.50;;;5.30;99.90;;;5.26;67.34;94559.09;5045924;28;20968;-56
2023/01/16 07:49:54;;;;;;;35.70;19.23;;;5.30;99.90;;;5.30;67.82;94547.47;5045329;28;20451;-57
2023/01/16 07:52:21;;;;;;;45.70;21.37;;;5.40;99.90;;;5.31;66.88;94549.97;5045739;28;20464;-57
2023/01/16 07:54:48;;;;;;;42.03;21.20;;;5.40;99.90;;;5.33;66.87;94540.28;5046358;28;20444;-56
2023/01/16 07:57:16;;;;;;;43.47;22.60;;;5.50;99.90;;;5.37;67.37;94531.25;5045922;28;20506;-56
2023/01/16 07:59:43;;;;;;;42.40;23.20;;;5.50;99.90;;;5.43;66.79;94531.75;5045864;28;20496;-56
2023/01/16 08:02:10;;;;;;;48.17;23.80;;;5.60;99.90;;;5.50;66.72;94530.31;5045005;28;20590;-57
2023/01/16 08:04:39;;;;;;;54.70;26.87;;;5.60;99.90;;;5.60;66.74;94538.28;5045738;28;20448;-57
2023/01/16 08:07:06;;;;;;;66.77;32.13;;;5.70;99.90;;;5.77;67.08;94542.19;5045589;28;20451;-55
2023/01/16 08:09:34;;;;;;;77.30;37.10;;;5.80;99.90;;;5.90;66.46;94540.28;5043628;28;20467;-56
2023/01/16 08:12:01;;;;;;;70.13;32.43;;;6.00;99.90;;;5.96;65.82;94537.19;5046178;28;20452;-57
2023/01/16 08:14:28;;;;;;;68.70;34.77;;;6.10;99.90;;;5.99;65.76;94544.00;5045599;28;20995;-55
2023/01/16 08:16:55;;;;;;;74.43;34.50;;;6.10;99.90;;;6.00;65.39;94543.06;5045702;28;20462;-55
2023/01/16 08:19:23;;;;;;;52.97;29.20;;;6.20;99.90;;;6.00;65.83;94556.09;5044852;28;20498;-56
2023/01/16 08:21:51;;;;;;;56.37;30.00;;;6.10;99.90;;;5.99;65.47;94551.81;5045334;28;20510;-56
2023/01/16 08:24:18;;;;;;;57.00;26.73;;;6.10;99.90;;;5.94;65.65;94560.00;5045624;28;20529;-57
2023/01/16 08:26:46;;;;;;;59.53;31.23;;;6.10;99.90;;;5.95;65.39;94548.59;5045207;28;20452;-56
2023/01/16 08:29:13;;;;;;;58.73;30.60;;;6.10;99.90;;;5.96;65.50;94547.63;5045705;28;20486;-57
2023/01/16 08:31:40;;;;;;;52.63;29.43;;;6.10;99.90;;;5.98;65.61;94530.13;5044924;28;20520;-55
2023/01/16 08:34:08;;;;;;;60.50;30.00;;;6.10;99.90;;;5.99;65.12;94526.53;5044902;28;20476;-56
2023/01/16 08:36:35;;;;;;;59.33;31.67;;;6.10;99.90;;;5.98;64.99;94524.91;5045182;28;20456;-55
2023/01/16 08:39:04;;;;;;;64.70;32.63;;;6.10;99.90;;;5.97;65.38;94514.59;5044791;28;21023;-56
2023/01/16 08:52:33;;;;;;;80.77;39.73;;;5.80;99.90;;;5.63;65.49;94512.78;5043372;28;20487;-55
2023/01/16 08:55:02;;;;;;;67.17;37.23;;;5.80;99.90;;;5.63;65.65;94522.41;5044237;28;20483;-55
2023/01/16 08:57:29;;;;;;;94.63;41.63;;;5.80;99.90;;;5.62;65.73;94516.31;5044257;28;20542;-57
2023/01/16 08:59:56;;;;;;;92.53;43.17;;;5.80;99.90;;;5.62;65.95;94503.28;5044391;28;20867;-56
2023/01/16 09:02:24;;;;;;;85.40;44.03;;;5.80;99.90;;;5.65;65.37;94495.22;5044612;28;20464;-56
2023/01/16 09:04:51;;;;;;;86.50;44.53;;;5.80;99.90;;;5.70;65.62;94498.31;5044525;28;20456;-58
2023/01/16 09:07:19;;;;;;;90.07;42.70;;;5.80;99.90;;;5.78;65.44;94502.09;5044785;28;20558;-56
2023/01/16 09:09:46;;;;;;;94.60;44.90;;;5.90;99.90;;;5.78;65.95;94496.88;5039814;28;20467;-58
2023/01/16 09:14:59;;;;;;;87.90;41.57;;;5.90;99.90;;;5.83;65.68;94499.97;5043185;28;20427;-55
2023/01/16 09:17:27;;;;;;;74.40;40.87;;;5.90;99.90;;;5.90;65.44;94485.47;5044872;28;20467;-55
2023/01/16 09:19:54;;;;;;;86.13;39.93;;;6.00;99.90;;;6.01;65.57;94484.66;5044878;28;20491;-55
2023/01/16 09:22:22;;;;;;;78.40;36.27;;;6.10;99.90;;;6.09;64.52;94472.66;5044549;28;20988;-56
2023/01/16 09:24:49;;;;;;;65.80;34.57;;;6.10;99.90;;;6.16;65.03;94464.34;5045063;28;20888;-57
2023/01/16 09:27:19;;;;;;;70.90;35.27;;;6.30;99.90;;;6.30;64.91;94466.66;5044384;28;21035;-55
2023/01/16 09:29:46;;;;;;;61.37;34.43;;;6.40;99.90;;;6.51;64.60;94460.66;5044847;28;20461;-58
2023/01/16 09:32:14;;;;;;;57.93;30.37;;;6.50;99.90;;;6.71;64.72;94456.41;5043863;28;20454;-55
2023/01/16 09:34:41;;;;;;;60.87;31.63;;;6.70;99.90;;;6.94;63.65;94447.50;5042689;28;20458;-57
2023/01/16 09:37:09;;;;;;;63.30;31.27;;;6.90;99.90;;;7.25;63.54;94444.06;5044590;28;20546;-54
2023/01/16 09:39:36;;;;;;;51.20;27.03;;;7.20;99.90;;;7.62;62.52;94443.53;5044543;28;20502;-55
2023/01/16 09:45:24;;;;;;;59.77;29.53;;;7.90;99.30;;;8.52;60.97;94429.53;5042232;28;20566;-55
2023/01/16 09:47:53;;;;;;;40.03;21.67;;;8.30;98.70;;;8.90;59.53;94419.97;5043822;28;20479;-57
2023/01/16 09:50:27;;;;;;;36.57;20.50;;;8.70;97.60;;;9.12;59.38;94423.25;5043712;28;20452;-57
2023/01/16 09:58:37;;;;;;;40.87;21.90;;;9.10;96.10;;;9.11;58.71;94421.59;5045270;28;20877;-57
2023/01/16 10:01:06;;;;;;;37.17;21.03;;;9.10;95.90;;;9.00;58.20;94416.50;5047824;28;20512;-55
2023/01/16 10:03:33;;;;;;;39.50;21.13;;;9.00;95.80;;;8.86;58.39;94420.38;5047595;28;20841;-55
2023/01/16 10:06:06;;;;;;;44.17;22.10;;;8.90;95.90;;;8.74;57.17;94409.25;5047935;28;20448;-57
2023/01/16 10:08:36;;;;;;;41.70;22.77;;;8.80;94.70;;;8.61;58.52;94392.00;5047678;28;20463;-57
2023/01/16 10:11:10;;;;;;;43.50;22.70;;;8.70;95.70;;;8.55;59.02;94376.84;5048107;28;20604;-57
2023/01/16 10:14:04;;;;;;;36.33;21.23;;;8.60;96.20;;;8.38;58.76;94374.88;5044866;28;20805;-55
2023/01/16 10:16:42;;;;;;;37.47;21.50;;;8.50;96.00;;;8.28;59.69;94374.06;5043915;28;20463;-57
2023/01/16 10:19:13;;;;;;;40.67;21.90;;;8.30;96.00;;;8.21;59.53;94374.63;5047137;28;20502;-55
2023/01/16 10:21:52;;;;;;;47.20;21.33;;;8.30;96.40;;;8.19;59.84;94379.16;5047563;28;20975;-56
2023/01/16 10:24:25;;;;;;;38.47;19.10;;;8.30;96.60;;;8.18;59.70;94356.56;5046338;28;20479;-57
2023/01/16 10:27:00;;;;;;;52.40;26.40;;;8.30;96.50;;;8.16;59.98;94353.22;5047573;28;20455;-56
2023/01/16 10:29:31;;;;;;;57.13;31.33;;;8.20;96.60;;;8.14;59.34;94355.16;5045853;28;20863;-57
2023/01/16 10:32:01;;;;;;;55.43;30.70;;;8.20;96.50;;;8.14;60.14;94357.78;5046815;28;20535;-54
2023/01/16 10:34:31;;;;;;;64.20;32.47;;;8.20;96.50;;;8.16;60.31;94357.66;5046672;28;20479;-56
2023/01/16 10:36:59;;;;;;;77.23;32.30;;;8.20;96.80;;;8.22;60.09;94347.44;5047215;28;20770;-57
2023/01/16 10:39:31;;;;;;;58.20;31.17;;;8.20;96.90;;;8.24;59.95;94345.53;5047427;28;20503;-57
2023/01/16 10:50:42;;;;;;;65.03;35.50;;;8.50;96.80;;;8.81;59.57;94294.13;5037211;28;20927;-57
2023/01/16 10:53:10;;;;;;;70.03;37.40;;;8.70;96.70;;;9.25;58.73;94286.47;5047191;28;20922;-58
2023/01/16 10:55:40;;;;;;;64.90;34.30;;;9.10;96.50;;;9.68;57.77;94290.22;5046908;28;20462;-57
2023/01/16 10:58:13;;;;;;;59.10;30.07;;;9.50;95.90;;;10.18;55.58;94273.13;5042823;28;20992;-57
2023/01/16 11:00:43;;;;;;;38.50;19.60;;;9.90;94.60;;;10.51;53.28;94273.41;5046241;28;21018;-57
2023/01/16 11:03:13;;;;;;;30.37;16.77;;;10.20;92.10;;;10.67;55.16;94283.19;5045707;28;21022;-57
2023/01/16 11:05:40;;;;;;;33.97;18.37;;;10.50;93.00;;;10.86;54.63;94261.94;5045283;28;20455;-58
2023/01/16 11:08:11;;;;;;;32.93;19.07;;;10.70;92.60;;;11.21;53.72;94256.66;5042781;28;20469;-58
2023/01/16 11:10:39;;;;;;;33.77;19.23;;;11.00;91.80;;;11.66;53.41;94258.09;5046754;28;20455;-56